sensor_id;sensor_type;location;lat;lon;timestamp;P1;durP1;ratioP1;P2;durP2;ratioP2
17390;SDS011;8813;54.444;18.446;2023-09-18T00:02:22;2.20;;;2.20;;
17390;SDS011;8813;54.444;18.446;2023-09-18T00:04:49;2.10;;;2.10;;
17390;SDS011;8813;54.444;18.446;2023-09-18T00:07:18;2.00;;;2.00;;
17390;SDS011;8813;54.444;18.446;2023-09-18T00:09:44;2.20;;;2.20;;
17390;SDS011;8813;54.444;18.446;2023-09-18T00:12:11;1.90;;;1.90;;
17390;SDS011;8813;54.444;18.446;2023-09-18T00:14:38;1.70;;;1.70;;
17390;SDS011;8813;54.444;18.446;2023-09-18T00:17:06;1.75;;;1.75;;
17390;SDS011;8813;54.444;18.446;2023-09-18T00:19:33;1.90;;;1.90;;
17390;SDS011;8813;54.444;18.446;2023-09-18T00:22:00;1.98;;;1.98;;
17390;SDS011;8813;54.444;18.446;2023-09-18T00:24:28;1.63;;;1.63;;
17390;SDS011;8813;54.444;18.446;2023-09-18T00:26:55;1.60;;;1.60;;
17390;SDS011;8813;54.444;18.446;2023-09-18T00:29:22;1.60;;;1.60;;
17390;SDS011;8813;54.444;18.446;2023-09-18T00:31:49;1.60;;;1.60;;
17390;SDS011;8813;54.444;18.446;2023-09-18T00:34:15;1.80;;;1.80;;
17390;SDS011;8813;54.444;18.446;2023-09-18T00:36:42;1.83;;;1.83;;
17390;SDS011;8813;54.444;18.446;2023-09-18T00:39:09;1.90;;;1.90;;
17390;SDS011;8813;54.444;18.446;2023-09-18T00:41:37;1.80;;;1.80;;
17390;SDS011;8813;54.444;18.446;2023-09-18T00:44:04;1.80;;;1.80;;
17390;SDS011;8813;54.444;18.446;2023-09-18T00:46:31;1.90;;;1.90;;
17390;SDS011;8813;54.444;18.446;2023-09-18T00:48:58;1.90;;;1.90;;
17390;SDS011;8813;54.444;18.446;2023-09-18T00:51:25;1.80;;;1.80;;
17390;SDS011;8813;54.444;18.446;2023-09-18T00:53:52;1.90;;;1.90;;
17390;SDS011;8813;54.444;18.446;2023-09-18T00:56:20;2.05;;;2.05;;
17390;SDS011;8813;54.444;18.446;2023-09-18T00:58:48;1.70;;;1.70;;
17390;SDS011;8813;54.444;18.446;2023-09-18T01:01:16;1.90;;;1.90;;
17390;SDS011;8813;54.444;18.446;2023-09-18T01:03:48;1.70;;;1.70;;
17390;SDS011;8813;54.444;18.446;2023-09-18T01:06:15;1.85;;;1.85;;
17390;SDS011;8813;54.444;18.446;2023-09-18T01:08:43;1.70;;;1.70;;
17390;SDS011;8813;54.444;18.446;2023-09-18T01:11:14;1.95;;;1.95;;
17390;SDS011;8813;54.444;18.446;2023-09-18T01:13:49;2.00;;;2.00;;
17390;SDS011;8813;54.444;18.446;2023-09-18T01:16:20;1.90;;;1.90;;
17390;SDS011;8813;54.444;18.446;2023-09-18T01:18:51;1.90;;;1.90;;
17390;SDS011;8813;54.444;18.446;2023-09-18T01:21:18;1.85;;;1.85;;
17390;SDS011;8813;54.444;18.446;2023-09-18T01:23:47;1.90;;;1.90;;
17390;SDS011;8813;54.444;18.446;2023-09-18T01:26:16;1.88;;;1.88;;
17390;SDS011;8813;54.444;18.446;2023-09-18T01:28:43;2.00;;;2.00;;
17390;SDS011;8813;54.444;18.446;2023-09-18T01:31:10;2.10;;;2.10;;
17390;SDS011;8813;54.444;18.446;2023-09-18T01:33:37;2.05;;;2.05;;
17390;SDS011;8813;54.444;18.446;2023-09-18T01:36:05;1.90;;;1.90;;
17390;SDS011;8813;54.444;18.446;2023-09-18T01:38:33;2.00;;;2.00;;
17390;SDS011;8813;54.444;18.446;2023-09-18T01:41:02;1.80;;;1.80;;
17390;SDS011;8813;54.444;18.446;2023-09-18T01:43:29;2.00;;;2.00;;
17390;SDS011;8813;54.444;18.446;2023-09-18T01:45:57;2.00;;;2.00;;
17390;SDS011;8813;54.444;18.446;2023-09-18T01:48:24;1.90;;;1.90;;
17390;SDS011;8813;54.444;18.446;2023-09-18T01:50:51;1.90;;;1.90;;
17390;SDS011;8813;54.444;18.446;2023-09-18T01:53:17;2.10;;;2.10;;
17390;SDS011;8813;54.444;18.446;2023-09-18T01:55:44;2.20;;;2.20;;
17390;SDS011;8813;54.444;18.446;2023-09-18T01:58:14;1.90;;;1.90;;
17390;SDS011;8813;54.444;18.446;2023-09-18T02:00:41;1.80;;;1.80;;
17390;SDS011;8813;54.444;18.446;2023-09-18T02:03:08;1.90;;;1.90;;
17390;SDS011;8813;54.444;18.446;2023-09-18T02:05:35;1.90;;;1.90;;
17390;SDS011;8813;54.444;18.446;2023-09-18T02:08:02;2.03;;;2.03;;
17390;SDS011;8813;54.444;18.446;2023-09-18T02:10:29;1.90;;;1.90;;
17390;SDS011;8813;54.444;18.446;2023-09-18T02:12:56;1.90;;;1.90;;
17390;SDS011;8813;54.444;18.446;2023-09-18T02:15:24;2.00;;;2.00;;
17390;SDS011;8813;54.444;18.446;2023-09-18T02:17:52;2.08;;;2.08;;
17390;SDS011;8813;54.444;18.446;2023-09-18T02:20:19;2.20;;;2.20;;
17390;SDS011;8813;54.444;18.446;2023-09-18T02:22:46;2.00;;;2.00;;
17390;SDS011;8813;54.444;18.446;2023-09-18T02:25:13;2.20;;;2.20;;
17390;SDS011;8813;54.444;18.446;2023-09-18T02:27:40;2.30;;;2.30;;
17390;SDS011;8813;54.444;18.446;2023-09-18T02:30:07;2.10;;;2.10;;
17390;SDS011;8813;54.444;18.446;2023-09-18T02:32:36;2.00;;;2.00;;
17390;SDS011;8813;54.444;18.446;2023-09-18T02:35:04;2.10;;;2.10;;
17390;SDS011;8813;54.444;18.446;2023-09-18T02:37:32;2.20;;;2.20;;
17390;SDS011;8813;54.444;18.446;2023-09-18T02:39:59;1.80;;;1.80;;
17390;SDS011;8813;54.444;18.446;2023-09-18T02:42:26;1.80;;;1.80;;
17390;SDS011;8813;54.444;18.446;2023-09-18T02:44:53;1.80;;;1.80;;
17390;SDS011;8813;54.444;18.446;2023-09-18T02:47:20;1.50;;;1.50;;
17390;SDS011;8813;54.444;18.446;2023-09-18T02:49:49;1.40;;;1.40;;
17390;SDS011;8813;54.444;18.446;2023-09-18T02:52:16;1.60;;;1.60;;
17390;SDS011;8813;54.444;18.446;2023-09-18T02:54:43;1.50;;;1.50;;
17390;SDS011;8813;54.444;18.446;2023-09-18T02:57:09;1.42;;;1.42;;
17390;SDS011;8813;54.444;18.446;2023-09-18T02:59:36;1.60;;;1.60;;
17390;SDS011;8813;54.444;18.446;2023-09-18T03:02:03;1.80;;;1.80;;
17390;SDS011;8813;54.444;18.446;2023-09-18T03:04:31;1.55;;;1.55;;
17390;SDS011;8813;54.444;18.446;2023-09-18T03:06:59;1.75;;;1.75;;
17390;SDS011;8813;54.444;18.446;2023-09-18T03:09:26;1.80;;;1.80;;
17390;SDS011;8813;54.444;18.446;2023-09-18T03:11:53;1.63;;;1.63;;
17390;SDS011;8813;54.444;18.446;2023-09-18T03:14:20;1.70;;;1.70;;
17390;SDS011;8813;54.444;18.446;2023-09-18T03:16:47;1.52;;;1.52;;
17390;SDS011;8813;54.444;18.446;2023-09-18T03:19:14;1.63;;;1.63;;
17390;SDS011;8813;54.444;18.446;2023-09-18T03:21:40;1.50;;;1.50;;
17390;SDS011;8813;54.444;18.446;2023-09-18T03:24:08;1.58;;;1.58;;
17390;SDS011;8813;54.444;18.446;2023-09-18T03:26:35;1.40;;;1.40;;
17390;SDS011;8813;54.444;18.446;2023-09-18T03:29:02;1.60;;;1.60;;
17390;SDS011;8813;54.444;18.446;2023-09-18T03:31:29;1.55;;;1.55;;
17390;SDS011;8813;54.444;18.446;2023-09-18T03:33:56;1.80;;;1.80;;
17390;SDS011;8813;54.444;18.446;2023-09-18T03:36:23;1.80;;;1.80;;
17390;SDS011;8813;54.444;18.446;2023-09-18T03:38:50;1.70;;;1.70;;
17390;SDS011;8813;54.444;18.446;2023-09-18T03:41:18;1.90;;;1.90;;
17390;SDS011;8813;54.444;18.446;2023-09-18T03:43:45;1.83;;;1.83;;
17390;SDS011;8813;54.444;18.446;2023-09-18T03:46:12;1.83;;;1.83;;
17390;SDS011;8813;54.444;18.446;2023-09-18T03:48:39;1.80;;;1.80;;
17390;SDS011;8813;54.444;18.446;2023-09-18T03:51:06;1.70;;;1.70;;
17390;SDS011;8813;54.444;18.446;2023-09-18T03:53:33;1.80;;;1.80;;
17390;SDS011;8813;54.444;18.446;2023-09-18T03:56:00;1.60;;;1.60;;
17390;SDS011;8813;54.444;18.446;2023-09-18T03:58:29;1.70;;;1.70;;
17390;SDS011;8813;54.444;18.446;2023-09-18T04:00:56;1.60;;;1.60;;
17390;SDS011;8813;54.444;18.446;2023-09-18T04:03:23;1.50;;;1.50;;
17390;SDS011;8813;54.444;18.446;2023-09-18T04:05:50;1.50;;;1.50;;
17390;SDS011;8813;54.444;18.446;2023-09-18T04:08:17;1.50;;;1.50;;
17390;SDS011;8813;54.444;18.446;2023-09-18T04:10:44;1.50;;;1.50;;
17390;SDS011;8813;54.444;18.446;2023-09-18T04:13:11;1.50;;;1.50;;
17390;SDS011;8813;54.444;18.446;2023-09-18T04:15:39;1.60;;;1.60;;
17390;SDS011;8813;54.444;18.446;2023-09-18T04:18:06;1.70;;;1.70;;
17390;SDS011;8813;54.444;18.446;2023-09-18T04:20:33;1.70;;;1.70;;
17390;SDS011;8813;54.444;18.446;2023-09-18T04:25:45;1.88;;;1.88;;
17390;SDS011;8813;54.444;18.446;2023-09-18T04:28:12;1.70;;;1.70;;
17390;SDS011;8813;54.444;18.446;2023-09-18T04:30:40;2.00;;;2.00;;
17390;SDS011;8813;54.444;18.446;2023-09-18T04:33:07;2.13;;;2.13;;
17390;SDS011;8813;54.444;18.446;2023-09-18T04:35:34;2.30;;;2.30;;
17390;SDS011;8813;54.444;18.446;2023-09-18T04:38:03;2.30;;;2.30;;
17390;SDS011;8813;54.444;18.446;2023-09-18T04:40:30;2.30;;;2.30;;
17390;SDS011;8813;54.444;18.446;2023-09-18T04:42:58;2.47;;;2.47;;
17390;SDS011;8813;54.444;18.446;2023-09-18T04:45:26;2.60;;;2.60;;
17390;SDS011;8813;54.444;18.446;2023-09-18T04:47:55;2.50;;;2.50;;
17390;SDS011;8813;54.444;18.446;2023-09-18T04:50:22;2.22;;;2.22;;
17390;SDS011;8813;54.444;18.446;2023-09-18T04:52:51;2.22;;;2.22;;
17390;SDS011;8813;54.444;18.446;2023-09-18T04:55:20;2.38;;;2.38;;
17390;SDS011;8813;54.444;18.446;2023-09-18T04:57:47;2.30;;;2.30;;
17390;SDS011;8813;54.444;18.446;2023-09-18T05:00:14;2.50;;;2.50;;
17390;SDS011;8813;54.444;18.446;2023-09-18T05:02:42;2.40;;;2.40;;
17390;SDS011;8813;54.444;18.446;2023-09-18T05:05:10;2.40;;;2.40;;
17390;SDS011;8813;54.444;18.446;2023-09-18T05:07:39;2.30;;;2.30;;
17390;SDS011;8813;54.444;18.446;2023-09-18T05:10:06;2.40;;;2.40;;
17390;SDS011;8813;54.444;18.446;2023-09-18T05:12:33;2.50;;;2.50;;
17390;SDS011;8813;54.444;18.446;2023-09-18T05:15:00;2.20;;;2.20;;
17390;SDS011;8813;54.444;18.446;2023-09-18T05:20:13;2.30;;;2.30;;
17390;SDS011;8813;54.444;18.446;2023-09-18T05:22:42;2.40;;;2.40;;
17390;SDS011;8813;54.444;18.446;2023-09-18T05:25:10;2.30;;;2.30;;
17390;SDS011;8813;54.444;18.446;2023-09-18T05:27:37;2.20;;;2.20;;
17390;SDS011;8813;54.444;18.446;2023-09-18T05:30:10;1.80;;;1.80;;
17390;SDS011;8813;54.444;18.446;2023-09-18T05:32:40;1.83;;;1.83;;
17390;SDS011;8813;54.444;18.446;2023-09-18T05:35:08;1.88;;;1.88;;
17390;SDS011;8813;54.444;18.446;2023-09-18T05:37:39;1.90;;;1.90;;
17390;SDS011;8813;54.444;18.446;2023-09-18T05:40:07;1.80;;;1.80;;
17390;SDS011;8813;54.444;18.446;2023-09-18T05:42:35;1.80;;;1.80;;
17390;SDS011;8813;54.444;18.446;2023-09-18T05:45:02;1.90;;;1.90;;
17390;SDS011;8813;54.444;18.446;2023-09-18T05:47:30;1.80;;;1.80;;
17390;SDS011;8813;54.444;18.446;2023-09-18T05:49:58;1.80;;;1.80;;
17390;SDS011;8813;54.444;18.446;2023-09-18T05:52:25;1.92;;;1.92;;
17390;SDS011;8813;54.444;18.446;2023-09-18T05:54:53;1.88;;;1.88;;
17390;SDS011;8813;54.444;18.446;2023-09-18T05:57:20;2.00;;;2.00;;
17390;SDS011;8813;54.444;18.446;2023-09-18T05:59:47;2.08;;;2.08;;
17390;SDS011;8813;54.444;18.446;2023-09-18T06:02:15;2.00;;;2.00;;
17390;SDS011;8813;54.444;18.446;2023-09-18T06:04:42;1.90;;;1.90;;
17390;SDS011;8813;54.444;18.446;2023-09-18T06:07:09;1.98;;;1.98;;
17390;SDS011;8813;54.444;18.446;2023-09-18T06:09:38;1.90;;;1.90;;
17390;SDS011;8813;54.444;18.446;2023-09-18T06:12:07;1.70;;;1.70;;
17390;SDS011;8813;54.444;18.446;2023-09-18T06:14:34;1.80;;;1.80;;
17390;SDS011;8813;54.444;18.446;2023-09-18T06:17:03;1.70;;;1.70;;
17390;SDS011;8813;54.444;18.446;2023-09-18T06:19:31;1.40;;;1.40;;
17390;SDS011;8813;54.444;18.446;2023-09-18T06:21:58;1.90;;;1.90;;
17390;SDS011;8813;54.444;18.446;2023-09-18T06:24:25;1.67;;;1.67;;
17390;SDS011;8813;54.444;18.446;2023-09-18T06:26:52;1.60;;;1.60;;
17390;SDS011;8813;54.444;18.446;2023-09-18T06:29:20;1.80;;;1.80;;
17390;SDS011;8813;54.444;18.446;2023-09-18T06:31:47;1.60;;;1.60;;
17390;SDS011;8813;54.444;18.446;2023-09-18T06:34:15;1.63;;;1.63;;
17390;SDS011;8813;54.444;18.446;2023-09-18T06:36:42;1.50;;;1.50;;
17390;SDS011;8813;54.444;18.446;2023-09-18T06:39:09;1.80;;;1.80;;
17390;SDS011;8813;54.444;18.446;2023-09-18T06:41:36;1.77;;;1.77;;
17390;SDS011;8813;54.444;18.446;2023-09-18T06:44:03;1.52;;;1.52;;
17390;SDS011;8813;54.444;18.446;2023-09-18T06:46:32;1.90;;;1.90;;
17390;SDS011;8813;54.444;18.446;2023-09-18T06:48:59;1.60;;;1.60;;
17390;SDS011;8813;54.444;18.446;2023-09-18T06:51:26;1.50;;;1.50;;
17390;SDS011;8813;54.444;18.446;2023-09-18T06:53:53;1.40;;;1.40;;
17390;SDS011;8813;54.444;18.446;2023-09-18T06:56:22;1.60;;;1.60;;
17390;SDS011;8813;54.444;18.446;2023-09-18T06:58:49;2.58;;;2.47;;
17390;SDS011;8813;54.444;18.446;2023-09-18T07:01:17;2.15;;;2.15;;
17390;SDS011;8813;54.444;18.446;2023-09-18T07:03:46;1.50;;;1.50;;
17390;SDS011;8813;54.444;18.446;2023-09-18T07:06:13;1.40;;;1.40;;
17390;SDS011;8813;54.444;18.446;2023-09-18T07:08:41;1.50;;;1.50;;
17390;SDS011;8813;54.444;18.446;2023-09-18T07:11:08;1.30;;;1.30;;
17390;SDS011;8813;54.444;18.446;2023-09-18T07:13:35;1.30;;;1.30;;
17390;SDS011;8813;54.444;18.446;2023-09-18T07:16:02;1.30;;;1.30;;
17390;SDS011;8813;54.444;18.446;2023-09-18T07:18:29;1.33;;;1.33;;
17390;SDS011;8813;54.444;18.446;2023-09-18T07:20:58;1.20;;;1.20;;
17390;SDS011;8813;54.444;18.446;2023-09-18T07:23:25;1.30;;;1.30;;
17390;SDS011;8813;54.444;18.446;2023-09-18T07:25:52;1.30;;;1.30;;
17390;SDS011;8813;54.444;18.446;2023-09-18T07:28:18;1.20;;;1.20;;
17390;SDS011;8813;54.444;18.446;2023-09-18T07:30:46;1.15;;;1.15;;
17390;SDS011;8813;54.444;18.446;2023-09-18T07:33:13;1.20;;;1.20;;
17390;SDS011;8813;54.444;18.446;2023-09-18T07:35:45;1.10;;;1.10;;
17390;SDS011;8813;54.444;18.446;2023-09-18T07:38:14;1.13;;;1.13;;
17390;SDS011;8813;54.444;18.446;2023-09-18T07:40:42;1.00;;;1.00;;
17390;SDS011;8813;54.444;18.446;2023-09-18T07:43:09;1.10;;;1.10;;
17390;SDS011;8813;54.444;18.446;2023-09-18T07:45:38;1.10;;;1.10;;
17390;SDS011;8813;54.444;18.446;2023-09-18T07:48:05;1.13;;;1.13;;
17390;SDS011;8813;54.444;18.446;2023-09-18T07:50:32;1.10;;;1.10;;
17390;SDS011;8813;54.444;18.446;2023-09-18T07:52:59;1.00;;;1.00;;
17390;SDS011;8813;54.444;18.446;2023-09-18T07:55:28;1.00;;;1.00;;
17390;SDS011;8813;54.444;18.446;2023-09-18T07:57:56;1.10;;;1.10;;
17390;SDS011;8813;54.444;18.446;2023-09-18T08:00:24;1.10;;;1.10;;
17390;SDS011;8813;54.444;18.446;2023-09-18T08:02:52;1.00;;;1.00;;
17390;SDS011;8813;54.444;18.446;2023-09-18T08:05:23;1.10;;;1.10;;
17390;SDS011;8813;54.444;18.446;2023-09-18T08:07:53;1.30;;;1.30;;
17390;SDS011;8813;54.444;18.446;2023-09-18T08:10:22;0.90;;;0.90;;
17390;SDS011;8813;54.444;18.446;2023-09-18T08:12:50;1.00;;;1.00;;
17390;SDS011;8813;54.444;18.446;2023-09-18T08:15:18;1.00;;;1.00;;
17390;SDS011;8813;54.444;18.446;2023-09-18T08:17:45;1.00;;;1.00;;
17390;SDS011;8813;54.444;18.446;2023-09-18T08:20:14;1.17;;;1.17;;
17390;SDS011;8813;54.444;18.446;2023-09-18T08:22:41;0.90;;;0.90;;
17390;SDS011;8813;54.444;18.446;2023-09-18T08:25:10;0.85;;;0.85;;
17390;SDS011;8813;54.444;18.446;2023-09-18T08:27:37;0.90;;;0.90;;
17390;SDS011;8813;54.444;18.446;2023-09-18T08:30:10;1.00;;;1.00;;
17390;SDS011;8813;54.444;18.446;2023-09-18T08:32:38;1.00;;;1.00;;
17390;SDS011;8813;54.444;18.446;2023-09-18T08:35:05;1.10;;;1.10;;
17390;SDS011;8813;54.444;18.446;2023-09-18T08:37:33;1.15;;;1.15;;
17390;SDS011;8813;54.444;18.446;2023-09-18T08:40:00;1.00;;;1.00;;
17390;SDS011;8813;54.444;18.446;2023-09-18T08:42:35;1.23;;;1.23;;
17390;SDS011;8813;54.444;18.446;2023-09-18T08:45:04;1.00;;;1.00;;
17390;SDS011;8813;54.444;18.446;2023-09-18T08:47:35;1.00;;;1.00;;
17390;SDS011;8813;54.444;18.446;2023-09-18T08:50:04;1.00;;;1.00;;
17390;SDS011;8813;54.444;18.446;2023-09-18T08:52:32;1.00;;;1.00;;
17390;SDS011;8813;54.444;18.446;2023-09-18T08:54:59;0.90;;;0.90;;
17390;SDS011;8813;54.444;18.446;2023-09-18T08:57:28;1.00;;;1.00;;
17390;SDS011;8813;54.444;18.446;2023-09-18T08:59:56;1.00;;;1.00;;
17390;SDS011;8813;54.444;18.446;2023-09-18T09:02:28;0.95;;;0.95;;
17390;SDS011;8813;54.444;18.446;2023-09-18T09:04:57;0.90;;;0.90;;
17390;SDS011;8813;54.444;18.446;2023-09-18T09:07:25;1.13;;;1.13;;
17390;SDS011;8813;54.444;18.446;2023-09-18T09:09:54;1.00;;;1.00;;
17390;SDS011;8813;54.444;18.446;2023-09-18T09:15:16;0.93;;;0.93;;
17390;SDS011;8813;54.444;18.446;2023-09-18T09:17:43;1.00;;;1.00;;
17390;SDS011;8813;54.444;18.446;2023-09-18T09:20:12;1.00;;;1.00;;
17390;SDS011;8813;54.444;18.446;2023-09-18T09:22:41;1.13;;;1.13;;
17390;SDS011;8813;54.444;18.446;2023-09-18T09:27:52;1.00;;;1.00;;
17390;SDS011;8813;54.444;18.446;2023-09-18T09:30:20;1.10;;;1.10;;
17390;SDS011;8813;54.444;18.446;2023-09-18T09:32:49;1.00;;;1.00;;
17390;SDS011;8813;54.444;18.446;2023-09-18T09:35:24;1.10;;;1.10;;
17390;SDS011;8813;54.444;18.446;2023-09-18T09:37:59;1.10;;;1.10;;
17390;SDS011;8813;54.444;18.446;2023-09-18T09:40:28;0.90;;;0.90;;
17390;SDS011;8813;54.444;18.446;2023-09-18T09:42:56;0.90;;;0.90;;
17390;SDS011;8813;54.444;18.446;2023-09-18T09:45:27;1.00;;;1.00;;
17390;SDS011;8813;54.444;18.446;2023-09-18T09:48:00;1.00;;;1.00;;
17390;SDS011;8813;54.444;18.446;2023-09-18T09:50:30;0.90;;;0.90;;
17390;SDS011;8813;54.444;18.446;2023-09-18T09:52:58;0.85;;;0.85;;
17390;SDS011;8813;54.444;18.446;2023-09-18T09:55:26;1.10;;;1.10;;
17390;SDS011;8813;54.444;18.446;2023-09-18T09:57:55;1.15;;;1.15;;
17390;SDS011;8813;54.444;18.446;2023-09-18T10:00:29;1.00;;;1.00;;
17390;SDS011;8813;54.444;18.446;2023-09-18T10:03:03;1.00;;;1.00;;
17390;SDS011;8813;54.444;18.446;2023-09-18T10:05:36;1.38;;;1.38;;
17390;SDS011;8813;54.444;18.446;2023-09-18T10:08:04;1.13;;;1.13;;
17390;SDS011;8813;54.444;18.446;2023-09-18T10:10:35;1.00;;;1.00;;
17390;SDS011;8813;54.444;18.446;2023-09-18T10:13:05;0.93;;;0.93;;
17390;SDS011;8813;54.444;18.446;2023-09-18T10:15:36;1.10;;;1.10;;
17390;SDS011;8813;54.444;18.446;2023-09-18T10:18:10;1.00;;;1.00;;
17390;SDS011;8813;54.444;18.446;2023-09-18T10:20:51;1.10;;;1.10;;
17390;SDS011;8813;54.444;18.446;2023-09-18T10:23:27;1.00;;;1.00;;
17390;SDS011;8813;54.444;18.446;2023-09-18T10:26:04;1.10;;;1.10;;
17390;SDS011;8813;54.444;18.446;2023-09-18T10:28:31;1.00;;;1.00;;
17390;SDS011;8813;54.444;18.446;2023-09-18T10:30:59;0.93;;;0.93;;
17390;SDS011;8813;54.444;18.446;2023-09-18T10:33:29;0.90;;;0.90;;
17390;SDS011;8813;54.444;18.446;2023-09-18T10:35:58;1.00;;;1.00;;
17390;SDS011;8813;54.444;18.446;2023-09-18T10:38:26;1.00;;;1.00;;
17390;SDS011;8813;54.444;18.446;2023-09-18T10:40:54;1.00;;;1.00;;
17390;SDS011;8813;54.444;18.446;2023-09-18T10:43:22;1.30;;;1.30;;
17390;SDS011;8813;54.444;18.446;2023-09-18T10:45:49;1.00;;;1.00;;
17390;SDS011;8813;54.444;18.446;2023-09-18T10:48:17;1.65;;;1.65;;
17390;SDS011;8813;54.444;18.446;2023-09-18T10:50:45;2.42;;;2.33;;
17390;SDS011;8813;54.444;18.446;2023-09-18T10:53:13;1.10;;;1.10;;
17390;SDS011;8813;54.444;18.446;2023-09-18T10:55:41;1.20;;;1.20;;
17390;SDS011;8813;54.444;18.446;2023-09-18T10:58:08;1.10;;;1.10;;
17390;SDS011;8813;54.444;18.446;2023-09-18T11:00:35;1.20;;;1.20;;
17390;SDS011;8813;54.444;18.446;2023-09-18T11:03:13;1.15;;;1.15;;
17390;SDS011;8813;54.444;18.446;2023-09-18T11:05:43;1.08;;;1.08;;
17390;SDS011;8813;54.444;18.446;2023-09-18T11:08:28;1.10;;;1.10;;
17390;SDS011;8813;54.444;18.446;2023-09-18T11:10:59;1.00;;;1.00;;
17390;SDS011;8813;54.444;18.446;2023-09-18T11:13:34;1.10;;;1.10;;
17390;SDS011;8813;54.444;18.446;2023-09-18T11:16:13;0.98;;;0.98;;
17390;SDS011;8813;54.444;18.446;2023-09-18T11:18:41;0.95;;;0.95;;
17390;SDS011;8813;54.444;18.446;2023-09-18T11:21:09;1.00;;;1.00;;
17390;SDS011;8813;54.444;18.446;2023-09-18T11:23:38;1.10;;;1.10;;
17390;SDS011;8813;54.444;18.446;2023-09-18T11:26:08;1.00;;;1.00;;
17390;SDS011;8813;54.444;18.446;2023-09-18T11:28:35;1.10;;;1.10;;
17390;SDS011;8813;54.444;18.446;2023-09-18T11:31:03;0.80;;;0.80;;
17390;SDS011;8813;54.444;18.446;2023-09-18T11:33:31;1.05;;;1.05;;
17390;SDS011;8813;54.444;18.446;2023-09-18T11:36:01;0.90;;;0.90;;
17390;SDS011;8813;54.444;18.446;2023-09-18T11:38:30;1.20;;;1.20;;
17390;SDS011;8813;54.444;18.446;2023-09-18T11:41:00;1.02;;;1.02;;
17390;SDS011;8813;54.444;18.446;2023-09-18T11:43:29;1.75;;;1.75;;
17390;SDS011;8813;54.444;18.446;2023-09-18T11:45:56;1.00;;;1.00;;
17390;SDS011;8813;54.444;18.446;2023-09-18T11:48:24;1.00;;;1.00;;
17390;SDS011;8813;54.444;18.446;2023-09-18T11:50:53;1.00;;;1.00;;
17390;SDS011;8813;54.444;18.446;2023-09-18T11:53:20;0.93;;;0.93;;
17390;SDS011;8813;54.444;18.446;2023-09-18T11:55:47;1.00;;;1.00;;
17390;SDS011;8813;54.444;18.446;2023-09-18T11:58:16;1.10;;;1.10;;
17390;SDS011;8813;54.444;18.446;2023-09-18T12:00:45;0.90;;;0.90;;
17390;SDS011;8813;54.444;18.446;2023-09-18T12:03:15;0.90;;;0.90;;
17390;SDS011;8813;54.444;18.446;2023-09-18T12:05:51;2.30;;;2.30;;
17390;SDS011;8813;54.444;18.446;2023-09-18T12:08:19;0.90;;;0.90;;
17390;SDS011;8813;54.444;18.446;2023-09-18T12:10:48;0.90;;;0.90;;
17390;SDS011;8813;54.444;18.446;2023-09-18T12:13:17;1.00;;;1.00;;
17390;SDS011;8813;54.444;18.446;2023-09-18T12:15:44;1.00;;;1.00;;
17390;SDS011;8813;54.444;18.446;2023-09-18T12:18:11;0.80;;;0.80;;
17390;SDS011;8813;54.444;18.446;2023-09-18T12:20:46;1.27;;;1.25;;
17390;SDS011;8813;54.444;18.446;2023-09-18T12:23:14;0.95;;;0.95;;
17390;SDS011;8813;54.444;18.446;2023-09-18T12:25:41;1.10;;;1.10;;
17390;SDS011;8813;54.444;18.446;2023-09-18T12:28:08;1.00;;;1.00;;
17390;SDS011;8813;54.444;18.446;2023-09-18T12:30:37;1.00;;;1.00;;
17390;SDS011;8813;54.444;18.446;2023-09-18T12:33:04;1.23;;;1.23;;
17390;SDS011;8813;54.444;18.446;2023-09-18T12:35:31;1.00;;;1.00;;
17390;SDS011;8813;54.444;18.446;2023-09-18T12:37:58;0.90;;;0.90;;
17390;SDS011;8813;54.444;18.446;2023-09-18T12:40:26;0.95;;;0.95;;
17390;SDS011;8813;54.444;18.446;2023-09-18T12:42:55;1.55;;;1.55;;
17390;SDS011;8813;54.444;18.446;2023-09-18T12:45:23;1.00;;;1.00;;
17390;SDS011;8813;54.444;18.446;2023-09-18T12:47:53;1.10;;;1.10;;
17390;SDS011;8813;54.444;18.446;2023-09-18T12:50:22;0.90;;;0.90;;
17390;SDS011;8813;54.444;18.446;2023-09-18T12:52:49;1.00;;;1.00;;
17390;SDS011;8813;54.444;18.446;2023-09-18T12:55:22;0.90;;;0.90;;
17390;SDS011;8813;54.444;18.446;2023-09-18T12:57:50;0.90;;;0.90;;
17390;SDS011;8813;54.444;18.446;2023-09-18T13:00:18;0.90;;;0.90;;
17390;SDS011;8813;54.444;18.446;2023-09-18T13:02:48;0.80;;;0.80;;
17390;SDS011;8813;54.444;18.446;2023-09-18T13:05:21;0.90;;;0.90;;
17390;SDS011;8813;54.444;18.446;2023-09-18T13:07:51;1.00;;;1.00;;
17390;SDS011;8813;54.444;18.446;2023-09-18T13:10:18;0.90;;;0.90;;
17390;SDS011;8813;54.444;18.446;2023-09-18T13:12:48;0.68;;;0.68;;
17390;SDS011;8813;54.444;18.446;2023-09-18T13:15:24;0.70;;;0.70;;
17390;SDS011;8813;54.444;18.446;2023-09-18T13:17:52;0.80;;;0.80;;
17390;SDS011;8813;54.444;18.446;2023-09-18T13:20:22;0.80;;;0.80;;
17390;SDS011;8813;54.444;18.446;2023-09-18T13:22:52;0.88;;;0.88;;
17390;SDS011;8813;54.444;18.446;2023-09-18T13:25:20;0.80;;;0.80;;
17390;SDS011;8813;54.444;18.446;2023-09-18T13:27:47;1.00;;;1.00;;
17390;SDS011;8813;54.444;18.446;2023-09-18T13:30:15;0.70;;;0.70;;
17390;SDS011;8813;54.444;18.446;2023-09-18T13:32:43;1.05;;;1.05;;
17390;SDS011;8813;54.444;18.446;2023-09-18T13:35:10;0.80;;;0.80;;
17390;SDS011;8813;54.444;18.446;2023-09-18T13:37:40;0.90;;;0.90;;
17390;SDS011;8813;54.444;18.446;2023-09-18T13:40:08;0.70;;;0.70;;
17390;SDS011;8813;54.444;18.446;2023-09-18T13:42:36;0.90;;;0.90;;
17390;SDS011;8813;54.444;18.446;2023-09-18T13:45:03;0.70;;;0.70;;
17390;SDS011;8813;54.444;18.446;2023-09-18T13:47:31;0.98;;;0.98;;
17390;SDS011;8813;54.444;18.446;2023-09-18T13:49:59;0.80;;;0.80;;
17390;SDS011;8813;54.444;18.446;2023-09-18T13:52:26;0.70;;;0.70;;
17390;SDS011;8813;54.444;18.446;2023-09-18T13:54:54;0.80;;;0.80;;
17390;SDS011;8813;54.444;18.446;2023-09-18T13:57:21;0.73;;;0.73;;
17390;SDS011;8813;54.444;18.446;2023-09-18T13:59:49;0.80;;;0.80;;
17390;SDS011;8813;54.444;18.446;2023-09-18T14:02:16;0.70;;;0.70;;
17390;SDS011;8813;54.444;18.446;2023-09-18T14:04:44;0.80;;;0.80;;
17390;SDS011;8813;54.444;18.446;2023-09-18T14:07:11;0.80;;;0.80;;
17390;SDS011;8813;54.444;18.446;2023-09-18T14:09:38;0.90;;;0.90;;
17390;SDS011;8813;54.444;18.446;2023-09-18T14:12:07;0.77;;;0.77;;
17390;SDS011;8813;54.444;18.446;2023-09-18T14:14:34;0.77;;;0.77;;
17390;SDS011;8813;54.444;18.446;2023-09-18T14:17:02;0.80;;;0.80;;
17390;SDS011;8813;54.444;18.446;2023-09-18T14:19:29;0.80;;;0.80;;
17390;SDS011;8813;54.444;18.446;2023-09-18T14:21:56;0.80;;;0.80;;
17390;SDS011;8813;54.444;18.446;2023-09-18T14:24:27;0.80;;;0.80;;
17390;SDS011;8813;54.444;18.446;2023-09-18T14:26:54;0.70;;;0.70;;
17390;SDS011;8813;54.444;18.446;2023-09-18T14:29:22;0.80;;;0.80;;
17390;SDS011;8813;54.444;18.446;2023-09-18T14:31:49;0.60;;;0.60;;
17390;SDS011;8813;54.444;18.446;2023-09-18T14:34:16;0.70;;;0.70;;
17390;SDS011;8813;54.444;18.446;2023-09-18T14:36:43;0.80;;;0.80;;
17390;SDS011;8813;54.444;18.446;2023-09-18T14:39:09;0.73;;;0.73;;
17390;SDS011;8813;54.444;18.446;2023-09-18T14:41:37;0.70;;;0.70;;
17390;SDS011;8813;54.444;18.446;2023-09-18T14:44:05;0.70;;;0.70;;
17390;SDS011;8813;54.444;18.446;2023-09-18T14:46:35;0.70;;;0.70;;
17390;SDS011;8813;54.444;18.446;2023-09-18T14:49:03;0.77;;;0.77;;
17390;SDS011;8813;54.444;18.446;2023-09-18T14:51:30;0.98;;;0.98;;
17390;SDS011;8813;54.444;18.446;2023-09-18T14:53:57;0.80;;;0.80;;
17390;SDS011;8813;54.444;18.446;2023-09-18T14:56:24;0.70;;;0.70;;
17390;SDS011;8813;54.444;18.446;2023-09-18T14:58:51;0.70;;;0.70;;
17390;SDS011;8813;54.444;18.446;2023-09-18T15:01:20;1.40;;;1.40;;
17390;SDS011;8813;54.444;18.446;2023-09-18T15:03:48;0.70;;;0.70;;
17390;SDS011;8813;54.444;18.446;2023-09-18T15:06:15;0.80;;;0.80;;